Time;durP1;ratioP1;P1;durP2;ratioP2;P2;SDS_P1;SDS_P2;PMS_P1;PMS_P2;Temp;Humidity;BMP_temperature;BMP_pressure;BME280_temperature;BME280_humidity;BME280_pressure;Samples;Min_cycle;Max_cycle;Signal;HPM_P1;HPM_P2
2020/12/22 00:01:21;;;;;;;75.63;41.83;;;8.10;99.90;;;;;;5067693;28;20066;-53
2020/12/22 00:03:47;;;;;;;80.53;42.28;;;8.10;99.90;;;;;;5051439;28;20117;-57
2020/12/22 00:06:20;;;;;;;78.07;39.75;;;8.10;99.90;;;;;;5062824;28;20036;-54
2020/12/22 00:08:46;;;;;;;76.13;39.30;;;8.10;99.90;;;;;;5055994;28;20041;-52
2020/12/22 00:11:11;;;;;;;69.00;38.28;;;8.10;99.90;;;;;;5068357;28;20836;-54
2020/12/22 00:13:37;;;;;;;71.35;37.95;;;8.10;99.90;;;;;;5064702;28;20033;-55
2020/12/22 00:16:03;;;;;;;73.28;38.83;;;8.10;99.90;;;;;;5067823;28;20032;-56
2020/12/22 00:18:29;;;;;;;70.05;39.25;;;8.10;99.90;;;;;;5069120;28;20033;-56
2020/12/22 00:20:54;;;;;;;72.85;39.15;;;8.10;99.90;;;;;;5068251;28;20511;-56
2020/12/22 00:23:20;;;;;;;76.28;39.70;;;8.00;99.90;;;;;;5068023;28;20021;-53
2020/12/22 00:25:47;;;;;;;79.20;39.30;;;8.00;99.90;;;;;;5069204;28;20051;-56
2020/12/22 00:28:14;;;;;;;74.10;38.00;;;8.00;99.90;;;;;;5065154;28;20127;-52
2020/12/22 00:30:41;;;;;;;74.70;39.55;;;8.00;99.90;;;;;;5068945;28;20075;-50
2020/12/22 00:33:07;;;;;;;78.88;41.70;;;8.00;99.90;;;;;;5068207;28;20037;-57
2020/12/22 00:35:33;;;;;;;72.82;38.97;;;8.00;99.90;;;;;;5068733;28;20056;-57
2020/12/22 00:38:00;;;;;;;70.68;39.92;;;8.00;99.90;;;;;;5062432;28;20083;-55
2020/12/22 00:40:27;;;;;;;73.05;39.60;;;8.00;99.90;;;;;;5069225;28;20107;-49
2020/12/22 00:42:52;;;;;;;70.00;39.03;;;8.00;99.90;;;;;;5064490;28;20071;-57
2020/12/22 00:45:19;;;;;;;73.95;38.17;;;8.00;99.90;;;;;;5067675;28;20097;-53
2020/12/22 00:47:45;;;;;;;79.00;41.67;;;8.00;99.90;;;;;;5067568;28;20037;-54
2020/12/22 00:50:11;;;;;;;73.38;37.75;;;8.00;99.90;;;;;;5068701;28;20032;-57
2020/12/22 00:52:37;;;;;;;76.90;39.70;;;8.00;99.90;;;;;;5061923;28;20047;-59
2020/12/22 00:55:04;;;;;;;97.55;41.03;;;8.00;99.90;;;;;;5068182;28;20514;-54
2020/12/22 00:57:30;;;;;;;79.32;39.58;;;8.00;99.90;;;;;;5068075;28;20489;-54
2020/12/22 00:59:55;;;;;;;81.10;39.95;;;8.00;99.90;;;;;;5068581;28;20119;-54
2020/12/22 01:02:21;;;;;;;74.03;38.92;;;8.00;99.90;;;;;;5063604;28;20032;-54
2020/12/22 01:04:49;;;;;;;77.97;41.75;;;8.00;99.90;;;;;;5068569;28;20036;-54
2020/12/22 01:07:15;;;;;;;74.30;40.90;;;8.00;99.90;;;;;;5064367;28;20387;-54
2020/12/22 01:09:41;;;;;;;70.07;40.85;;;8.00;99.90;;;;;;5064941;28;20089;-55
2020/12/22 01:12:07;;;;;;;83.13;42.13;;;8.00;99.90;;;;;;5051694;28;20032;-56
2020/12/22 01:14:33;;;;;;;87.82;39.75;;;8.00;99.90;;;;;;5068583;28;20024;-58
2020/12/22 01:16:58;;;;;;;95.03;41.78;;;8.00;99.90;;;;;;5069447;28;20037;-55
2020/12/22 01:19:24;;;;;;;69.78;38.70;;;8.00;99.90;;;;;;5072584;28;20047;-54
2020/12/22 01:21:53;;;;;;;70.00;39.55;;;8.00;99.90;;;;;;5069665;28;20873;-56
2020/12/22 01:24:20;;;;;;;73.72;39.13;;;8.00;99.90;;;;;;5067264;28;20028;-54
2020/12/22 01:26:49;;;;;;;77.28;39.58;;;8.00;99.90;;;;;;5053445;28;20493;-54
2020/12/22 01:29:14;;;;;;;87.03;41.55;;;8.00;99.90;;;;;;5072577;28;20039;-55
2020/12/22 01:31:40;;;;;;;79.45;40.50;;;8.00;99.90;;;;;;5071469;28;20395;-52
2020/12/22 01:34:06;;;;;;;96.63;40.50;;;8.00;99.90;;;;;;5070843;28;20036;-53
2020/12/22 01:36:32;;;;;;;73.63;38.65;;;7.90;99.90;;;;;;5070276;28;20166;-51
2020/12/22 01:38:58;;;;;;;78.38;40.28;;;7.90;99.90;;;;;;5067610;28;20036;-54
2020/12/22 01:41:24;;;;;;;92.88;41.42;;;7.90;99.90;;;;;;5071257;28;20033;-55
2020/12/22 01:44:05;;;;;;;89.07;41.13;;;7.90;99.90;;;;;;5068263;28;20029;-55
2020/12/22 01:46:46;;;;;;;80.25;39.20;;;7.90;99.90;;;;;;5051755;28;20037;-56
2020/12/22 01:49:25;;;;;;;89.68;41.72;;;7.90;99.90;;;;;;5056562;28;20032;-58
2020/12/22 01:51:56;;;;;;;77.05;38.97;;;7.90;99.90;;;;;;5069985;28;20068;-51
2020/12/22 01:54:23;;;;;;;88.18;40.40;;;7.90;99.90;;;;;;5067693;28;20380;-53
2020/12/22 01:56:49;;;;;;;109.60;41.65;;;7.90;99.90;;;;;;5066333;28;20095;-53
2020/12/22 01:59:14;;;;;;;107.35;43.38;;;7.90;99.90;;;;;;5070935;28;20025;-51
2020/12/22 02:01:40;;;;;;;115.68;42.80;;;7.90;99.90;;;;;;5069834;28;20039;-52
2020/12/22 02:04:08;;;;;;;114.10;41.95;;;7.90;99.90;;;;;;5069622;28;20028;-52
2020/12/22 02:06:35;;;;;;;99.05;40.53;;;7.90;99.90;;;;;;5069228;28;20511;-56
2020/12/22 02:09:03;;;;;;;95.65;41.10;;;7.80;99.90;;;;;;5054674;28;20357;-53
2020/12/22 02:11:30;;;;;;;103.88;42.10;;;7.80;99.90;;;;;;5063154;28;20499;-53
2020/12/22 02:13:58;;;;;;;102.07;41.70;;;7.80;99.90;;;;;;5052862;28;20395;-52
2020/12/22 02:16:24;;;;;;;81.35;39.22;;;7.80;99.90;;;;;;5071550;28;20032;-50
2020/12/22 02:18:51;;;;;;;87.70;41.70;;;7.80;99.90;;;;;;5070533;28;20075;-54
2020/12/22 02:21:17;;;;;;;85.82;40.47;;;7.80;99.90;;;;;;5069736;28;20029;-57
2020/12/22 02:23:44;;;;;;;84.90;39.75;;;7.70;99.90;;;;;;5070154;28;20028;-51
2020/12/22 02:26:10;;;;;;;85.10;39.47;;;7.80;99.90;;;;;;5070946;28;20369;-58
2020/12/22 02:28:36;;;;;;;88.78;42.05;;;7.70;99.90;;;;;;5070125;28;20048;-58
2020/12/22 02:31:03;;;;;;;85.95;38.60;;;7.80;99.90;;;;;;5069304;28;20527;-48
2020/12/22 02:33:29;;;;;;;83.68;39.40;;;7.80;99.90;;;;;;5071209;28;20429;-50
2020/12/22 02:35:55;;;;;;;74.78;37.33;;;7.80;99.90;;;;;;5052865;28;20107;-52
2020/12/22 02:38:22;;;;;;;65.85;34.50;;;7.90;99.90;;;;;;5069053;28;20115;-57
2020/12/22 02:40:48;;;;;;;66.97;34.10;;;7.90;99.90;;;;;;5066441;28;20036;-56
2020/12/22 02:43:14;;;;;;;74.47;35.10;;;7.90;99.90;;;;;;5070356;28;20029;-51
2020/12/22 02:45:41;;;;;;;62.30;32.17;;;7.90;99.90;;;;;;5070700;28;20032;-55
2020/12/22 02:48:11;;;;;;;62.55;33.13;;;7.90;99.90;;;;;;5069159;28;20128;-53
2020/12/22 02:50:38;;;;;;;70.38;35.63;;;7.90;99.90;;;;;;5071447;28;20517;-54
2020/12/22 02:53:04;;;;;;;64.53;34.50;;;7.90;99.90;;;;;;5069097;28;20040;-53
2020/12/22 02:55:30;;;;;;;82.03;35.70;;;7.90;99.90;;;;;;5064428;28;20097;-55
2020/12/22 02:57:56;;;;;;;67.20;33.15;;;7.90;99.90;;;;;;5071032;28;20082;-55
2020/12/22 03:00:23;;;;;;;65.35;35.17;;;7.90;99.90;;;;;;5069761;28;20028;-56
2020/12/22 03:02:49;;;;;;;66.82;33.83;;;7.90;99.90;;;;;;5070865;28;20036;-52
2020/12/22 03:05:15;;;;;;;63.75;33.08;;;7.90;99.90;;;;;;5066193;28;20036;-52
2020/12/22 03:07:41;;;;;;;68.45;32.60;;;7.90;99.90;;;;;;5068984;28;20055;-55
2020/12/22 03:10:14;;;;;;;59.33;33.38;;;7.90;99.90;;;;;;5067745;28;20028;-55
2020/12/22 03:12:40;;;;;;;55.55;32.75;;;7.90;99.90;;;;;;5070767;28;20064;-57
2020/12/22 03:15:07;;;;;;;54.10;30.00;;;7.90;99.90;;;;;;5068980;28;20570;-54
2020/12/22 03:17:34;;;;;;;68.60;32.58;;;7.90;99.90;;;;;;5070798;28;20024;-56
2020/12/22 03:20:00;;;;;;;64.03;30.80;;;7.90;99.90;;;;;;5216790;22;20094;-55
2020/12/22 03:22:26;;;;;;;59.47;31.38;;;7.90;99.90;;;;;;5048025;28;20032;-56
2020/12/22 03:24:52;;;;;;;59.55;30.95;;;7.90;99.90;;;;;;5045691;28;20036;-54
2020/12/22 03:27:18;;;;;;;68.55;31.27;;;7.90;99.90;;;;;;5050287;28;20033;-54
2020/12/22 03:29:44;;;;;;;61.03;32.63;;;7.90;99.90;;;;;;5040609;28;20523;-55
2020/12/22 03:32:10;;;;;;;61.72;31.27;;;8.00;99.90;;;;;;5048032;28;20087;-56
2020/12/22 03:34:37;;;;;;;58.08;31.30;;;8.00;99.90;;;;;;5049513;28;20112;-58
2020/12/22 03:37:03;;;;;;;54.58;30.00;;;8.00;99.90;;;;;;5048508;28;20500;-57
2020/12/22 03:39:28;;;;;;;60.25;30.15;;;8.00;99.90;;;;;;5046602;28;20032;-56
2020/12/22 03:41:54;;;;;;;56.42;29.67;;;8.00;99.90;;;;;;5046075;28;20044;-56
2020/12/22 03:44:20;;;;;;;67.82;30.35;;;7.90;99.90;;;;;;5048735;28;20423;-58
2020/12/22 03:46:49;;;;;;;53.85;29.00;;;7.90;99.90;;;;;;5049646;28;20028;-57
2020/12/22 03:49:16;;;;;;;58.03;28.85;;;7.90;99.90;;;;;;5047856;28;20040;-57
2020/12/22 03:51:43;;;;;;;59.40;31.75;;;8.00;99.90;;;;;;5047342;28;20463;-53
2020/12/22 03:54:09;;;;;;;74.30;32.00;;;8.00;99.90;;;;;;5030855;28;20060;-57
2020/12/22 03:56:34;;;;;;;75.70;31.42;;;7.90;99.90;;;;;;5047619;28;20072;-53
2020/12/22 03:59:00;;;;;;;56.67;29.42;;;8.00;99.90;;;;;;5047720;28;20443;-58
2020/12/22 04:01:26;;;;;;;62.85;31.45;;;8.00;99.90;;;;;;5049624;28;20065;-58
2020/12/22 04:03:52;;;;;;;60.92;30.80;;;8.00;99.90;;;;;;5048785;28;20029;-50
2020/12/22 04:06:18;;;;;;;60.20;29.70;;;8.00;99.90;;;;;;5044898;28;20108;-54
2020/12/22 04:08:43;;;;;;;54.17;27.83;;;8.00;99.90;;;;;;5049569;28;20132;-55
2020/12/22 04:11:09;;;;;;;88.53;32.10;;;8.00;99.90;;;;;;5040136;28;20086;-50
2020/12/22 04:13:35;;;;;;;104.57;36.53;;;8.00;99.90;;;;;;5031447;28;20119;-57
2020/12/22 04:16:05;;;;;;;81.30;33.78;;;8.00;99.90;;;;;;5047244;28;20066;-55
2020/12/22 04:18:31;;;;;;;122.18;37.53;;;8.00;99.90;;;;;;5049225;28;20032;-52
2020/12/22 04:20:58;;;;;;;98.85;36.90;;;8.00;99.90;;;;;;5043507;28;20053;-57
2020/12/22 04:23:27;;;;;;;103.93;37.00;;;8.00;99.90;;;;;;5048950;28;20062;-50
2020/12/22 04:25:53;;;;;;;116.55;38.20;;;8.00;99.90;;;;;;5045617;28;20367;-52
2020/12/22 04:28:19;;;;;;;112.40;37.13;;;8.00;99.90;;;;;;5048892;28;20045;-53
2020/12/22 04:30:45;;;;;;;71.57;31.38;;;8.00;99.90;;;;;;5048042;28;20079;-56
2020/12/22 04:33:12;;;;;;;84.35;34.42;;;8.00;99.90;;;;;;5048176;28;20037;-53
2020/12/22 04:35:39;;;;;;;66.80;30.10;;;8.00;99.90;;;;;;5049068;28;20042;-49
2020/12/22 04:38:05;;;;;;;80.57;32.13;;;8.00;99.90;;;;;;5046939;28;20102;-54
2020/12/22 04:40:32;;;;;;;89.78;34.42;;;8.00;99.90;;;;;;5045069;28;20029;-53
2020/12/22 04:42:59;;;;;;;89.95;34.88;;;8.00;99.90;;;;;;5048881;28;20032;-57
2020/12/22 04:45:29;;;;;;;85.88;34.22;;;8.00;99.90;;;;;;5047508;28;20435;-53
2020/12/22 04:47:55;;;;;;;91.35;34.80;;;8.00;99.90;;;;;;5047795;28;20076;-52
2020/12/22 04:50:21;;;;;;;96.25;35.42;;;8.00;99.90;;;;;;5047394;28;20550;-57
2020/12/22 04:52:50;;;;;;;86.47;32.85;;;8.00;99.90;;;;;;5046161;28;20036;-53
2020/12/22 04:55:18;;;;;;;86.05;35.83;;;8.00;99.90;;;;;;5047625;28;20389;-56
2020/12/22 04:57:51;;;;;;;91.32;35.13;;;8.00;99.90;;;;;;5046574;28;20029;-52
2020/12/22 05:00:20;;;;;;;101.85;35.58;;;8.00;99.90;;;;;;5047773;28;20040;-56
2020/12/22 05:02:50;;;;;;;90.20;37.00;;;8.00;99.90;;;;;;5029008;28;20029;-54
2020/12/22 05:05:15;;;;;;;108.32;34.28;;;8.00;99.90;;;;;;5028719;28;20034;-55
2020/12/22 05:07:41;;;;;;;122.60;35.08;;;8.00;99.90;;;;;;5046229;28;20051;-56
2020/12/22 05:10:12;;;;;;;101.00;35.35;;;8.00;99.90;;;;;;5029483;28;20492;-55
2020/12/22 05:12:42;;;;;;;122.53;38.25;;;8.00;99.90;;;;;;5045654;28;20037;-51
2020/12/22 05:15:09;;;;;;;106.28;37.75;;;7.90;99.90;;;;;;5047365;28;20032;-57
2020/12/22 05:17:45;;;;;;;115.93;38.03;;;8.00;99.90;;;;;;5048485;28;20041;-56
2020/12/22 05:20:15;;;;;;;139.25;39.35;;;8.00;99.90;;;;;;5047217;28;20053;-53
2020/12/22 05:22:44;;;;;;;96.40;37.17;;;7.90;99.90;;;;;;5046267;28;20484;-54
2020/12/22 05:25:14;;;;;;;106.40;36.15;;;8.00;99.90;;;;;;5047853;28;20032;-49
2020/12/22 05:27:43;;;;;;;142.77;37.50;;;8.00;99.90;;;;;;5037622;28;20037;-55
2020/12/22 05:30:10;;;;;;;106.32;35.10;;;8.00;99.90;;;;;;5031782;28;20447;-53
2020/12/22 05:32:35;;;;;;;112.65;33.67;;;8.00;99.90;;;;;;5045475;28;20048;-55
2020/12/22 05:35:01;;;;;;;94.82;34.22;;;8.00;99.90;;;;;;5048465;28;20040;-54
2020/12/22 05:37:28;;;;;;;117.50;35.13;;;8.00;99.90;;;;;;5048209;28;20036;-56
2020/12/22 05:39:54;;;;;;;97.03;33.88;;;8.00;99.90;;;;;;5048799;28;20033;-54
2020/12/22 05:42:20;;;;;;;104.15;34.78;;;8.00;99.90;;;;;;5048346;28;20095;-54
2020/12/22 05:44:50;;;;;;;153.55;37.28;;;8.00;99.90;;;;;;5048154;28;20033;-53
2020/12/22 05:47:21;;;;;;;109.15;35.20;;;8.00;99.90;;;;;;5048353;28;20396;-56
2020/12/22 05:49:51;;;;;;;116.55;38.58;;;8.00;99.90;;;;;;5048197;28;20140;-51
2020/12/22 05:52:21;;;;;;;127.18;40.17;;;8.00;99.90;;;;;;5048065;28;20401;-52
2020/12/22 05:54:50;;;;;;;125.63;39.30;;;7.90;99.90;;;;;;5048286;28;20090;-54
2020/12/22 05:57:22;;;;;;;122.82;38.65;;;7.90;99.90;;;;;;5048138;28;20112;-52
2020/12/22 05:59:49;;;;;;;133.75;39.28;;;7.90;99.90;;;;;;5048072;28;20029;-56
2020/12/22 06:02:32;;;;;;;130.77;38.33;;;7.90;99.90;;;;;;5048127;28;20362;-55
2020/12/22 06:05:02;;;;;;;140.73;36.22;;;7.90;99.90;;;;;;5051703;28;20020;-55
2020/12/22 06:07:29;;;;;;;113.93;35.92;;;7.90;99.90;;;;;;5051637;28;20451;-54
2020/12/22 06:09:56;;;;;;;130.18;37.45;;;7.90;99.90;;;;;;5051650;28;20637;-51
2020/12/22 06:12:23;;;;;;;105.43;33.25;;;7.90;99.90;;;;;;5051706;28;20036;-54
2020/12/22 06:14:57;;;;;;;103.60;33.60;;;7.90;99.90;;;;;;5051524;28;20476;-52
2020/12/22 06:17:23;;;;;;;127.53;34.72;;;7.90;99.90;;;;;;5051580;28;20025;-53
2020/12/22 06:19:49;;;;;;;100.25;36.13;;;7.90;99.90;;;;;;5051485;28;20064;-51
2020/12/22 06:22:17;;;;;;;124.20;34.42;;;7.90;99.90;;;;;;5051545;28;20025;-52
2020/12/22 06:24:44;;;;;;;104.15;33.30;;;7.90;99.90;;;;;;5051796;28;20033;-56
2020/12/22 06:27:12;;;;;;;104.28;33.80;;;7.90;99.90;;;;;;5051291;28;20047;-49
2020/12/22 06:29:42;;;;;;;92.45;34.42;;;7.90;99.90;;;;;;5051563;28;20480;-54
2020/12/22 06:32:17;;;;;;;108.07;35.08;;;7.90;99.90;;;;;;5051247;28;20143;-56
2020/12/22 06:34:44;;;;;;;139.60;36.53;;;7.90;99.90;;;;;;5051376;28;20040;-52
2020/12/22 06:37:10;;;;;;;111.93;35.88;;;7.90;99.90;;;;;;5051293;28;20029;-56
2020/12/22 06:39:44;;;;;;;92.10;30.20;;;7.90;99.90;;;;;;5051103;28;20112;-52
2020/12/22 06:42:39;;;;;;;92.88;32.88;;;7.90;99.90;;;;;;5051420;28;20036;-50
2020/12/22 06:45:35;;;;;;;103.80;32.85;;;7.90;99.90;;;;;;5023100;28;20455;-53
2020/12/22 06:48:01;;;;;;;100.93;33.40;;;7.90;99.90;;;;;;5050881;28;20033;-54
2020/12/22 06:50:46;;;;;;;110.43;34.03;;;7.90;99.90;;;;;;5051269;28;20024;-52
2020/12/22 06:53:47;;;;;;;113.88;33.83;;;7.90;99.90;;;;;;5051249;28;20036;-53
2020/12/22 06:56:13;;;;;;;98.43;32.85;;;7.90;99.90;;;;;;4969347;28;20031;-52
2020/12/22 06:58:44;;;;;;;92.43;31.13;;;8.00;99.90;;;;;;4969370;28;20035;-52
2020/12/22 07:01:47;;;;;;;99.13;31.30;;;7.90;99.90;;;;;;4969448;28;20045;-53
2020/12/22 07:04:16;;;;;;;105.93;31.23;;;8.00;99.90;;;;;;4957667;28;20514;-55
2020/12/22 07:06:48;;;;;;;92.22;31.23;;;8.00;99.90;;;;;;4969074;28;20117;-53
2020/12/22 07:09:17;;;;;;;96.78;31.70;;;8.00;99.90;;;;;;4969211;28;20039;-53
2020/12/22 07:11:43;;;;;;;94.00;31.77;;;8.00;99.90;;;;;;4969211;28;20102;-51
2020/12/22 07:14:13;;;;;;;109.47;36.13;;;8.00;99.90;;;;;;4968514;28;20042;-52
2020/12/22 07:16:49;;;;;;;88.25;33.42;;;8.00;99.90;;;;;;4969206;28;20073;-50
2020/12/22 07:19:21;;;;;;;102.22;34.03;;;8.00;99.90;;;;;;4968914;28;20457;-55
2020/12/22 07:21:47;;;;;;;140.45;36.10;;;7.90;99.90;;;;;;4969005;28;20057;-57
2020/12/22 07:24:13;;;;;;;143.75;37.28;;;7.90;99.90;;;;;;4968869;28;20066;-54
2020/12/22 07:26:40;;;;;;;113.82;32.88;;;7.90;99.90;;;;;;4968858;28;20035;-56
2020/12/22 07:29:09;;;;;;;96.97;32.55;;;7.90;99.90;;;;;;4972096;28;20050;-52
2020/12/22 07:31:36;;;;;;;97.05;32.63;;;8.00;99.90;;;;;;5041562;28;20057;-54
2020/12/22 07:34:05;;;;;;;102.35;31.90;;;8.00;99.90;;;;;;5033073;28;20467;-53
2020/12/22 07:36:33;;;;;;;120.30;33.67;;;8.10;99.90;;;;;;5045556;28;20434;-55
2020/12/22 07:39:13;;;;;;;105.18;33.15;;;8.10;99.90;;;;;;5049813;28;20095;-51
2020/12/22 07:41:39;;;;;;;99.82;32.80;;;8.10;99.90;;;;;;5049995;28;20041;-54
2020/12/22 07:44:09;;;;;;;101.07;33.58;;;8.10;99.90;;;;;;5049883;28;20033;-54
2020/12/22 07:46:35;;;;;;;88.32;32.85;;;8.00;99.90;;;;;;5049744;28;20060;-56
2020/12/22 07:49:06;;;;;;;92.30;34.45;;;8.10;99.90;;;;;;5049757;28;20072;-52
2020/12/22 07:51:33;;;;;;;81.43;33.17;;;8.10;99.90;;;;;;5049892;28;20057;-54
2020/12/22 07:54:04;;;;;;;89.93;33.67;;;8.00;99.90;;;;;;5049900;28;20482;-50
2020/12/22 07:56:32;;;;;;;90.85;33.75;;;8.00;99.90;;;;;;5049688;28;20036;-55
2020/12/22 07:59:00;;;;;;;88.38;32.78;;;8.00;99.90;;;;;;5050015;28;20032;-58
2020/12/22 08:01:28;;;;;;;90.75;31.38;;;8.00;99.90;;;;;;5049565;28;20045;-50
2020/12/22 08:03:54;;;;;;;86.43;32.15;;;8.00;99.90;;;;;;5049500;28;20035;-53
2020/12/22 08:06:20;;;;;;;85.35;32.75;;;8.00;99.90;;;;;;5049713;28;20029;-54
2020/12/22 08:08:58;;;;;;;85.50;33.83;;;7.90;99.90;;;;;;5049423;28;20044;-48
2020/12/22 08:11:24;;;;;;;92.95;33.92;;;7.90;99.90;;;;;;5049729;28;20036;-55
2020/12/22 08:13:50;;;;;;;93.75;32.55;;;7.90;99.90;;;;;;5049494;28;20057;-53
2020/12/22 08:16:18;;;;;;;84.80;33.08;;;7.90;99.90;;;;;;5049477;28;20136;-54
2020/12/22 08:18:44;;;;;;;87.60;32.50;;;8.00;99.90;;;;;;5049504;28;20447;-53
2020/12/22 08:21:11;;;;;;;104.65;33.28;;;7.90;99.90;;;;;;5049099;28;20088;-57
2020/12/22 08:23:38;;;;;;;88.90;33.83;;;8.00;99.90;;;;;;5049312;28;20106;-54
2020/12/22 08:26:05;;;;;;;89.18;33.35;;;8.00;99.90;;;;;;5043452;28;20060;-51
2020/12/22 08:28:31;;;;;;;96.47;33.08;;;8.00;99.90;;;;;;5038350;28;20122;-52
2020/12/22 08:31:12;;;;;;;89.60;32.13;;;8.10;99.90;;;;;;5043698;28;20496;-53
2020/12/22 08:33:40;;;;;;;104.57;34.40;;;8.10;99.90;;;;;;5043497;28;20056;-55
2020/12/22 08:36:10;;;;;;;81.20;32.35;;;8.10;99.90;;;;;;5030047;28;20059;-56
2020/12/22 08:38:37;;;;;;;103.50;32.58;;;8.10;99.90;;;;;;5029553;28;20052;-54
2020/12/22 08:41:18;;;;;;;89.85;33.17;;;8.10;99.90;;;;;;5046970;28;20500;-56
2020/12/22 08:43:51;;;;;;;103.53;32.67;;;8.10;99.90;;;;;;5037992;28;20029;-54
2020/12/22 08:46:19;;;;;;;97.10;33.50;;;8.20;99.90;;;;;;5047093;28;20488;-52
2020/12/22 08:48:46;;;;;;;112.40;33.05;;;8.20;99.90;;;;;;5045731;28;20132;-57
2020/12/22 08:51:26;;;;;;;102.15;34.83;;;8.20;99.90;;;;;;5040913;28;20037;-53
2020/12/22 08:53:53;;;;;;;91.50;32.58;;;8.20;99.90;;;;;;5028572;28;20060;-55
2020/12/22 08:56:23;;;;;;;100.50;36.03;;;8.20;99.90;;;;;;5028999;28;20116;-56
2020/12/22 08:58:59;;;;;;;97.45;37.35;;;8.10;99.90;;;;;;5028709;28;20444;-54
2020/12/22 09:01:33;;;;;;;96.40;35.47;;;8.20;99.90;;;;;;5039732;28;20057;-54
2020/12/22 09:04:00;;;;;;;82.82;32.25;;;8.20;99.90;;;;;;5044583;28;20091;-53
2020/12/22 09:06:46;;;;;;;82.72;32.28;;;8.20;99.90;;;;;;5028437;28;20501;-52
2020/12/22 09:09:33;;;;;;;88.95;32.35;;;8.20;99.90;;;;;;5032872;28;20076;-53
2020/12/22 09:12:05;;;;;;;;;;;8.20;99.90;;;;;;5037985;28;20461;-55
2020/12/22 09:14:42;;;;;;;87.50;29.95;;;8.40;99.90;;;;;;5040110;28;19916;-52
2020/12/22 09:17:09;;;;;;;91.22;32.88;;;8.30;99.90;;;;;;5029573;28;20090;-55
2020/12/22 09:19:48;;;;;;;90.22;32.88;;;8.30;99.90;;;;;;5041566;28;20455;-55
2020/12/22 09:22:15;;;;;;;86.47;32.13;;;8.30;99.90;;;;;;5028225;28;20493;-54
2020/12/22 09:24:42;;;;;;;93.32;31.08;;;8.30;99.90;;;;;;5037265;28;20033;-52
2020/12/22 09:27:09;;;;;;;96.43;33.33;;;8.30;99.90;;;;;;5044715;28;20045;-55
2020/12/22 09:29:38;;;;;;;88.50;30.48;;;8.40;99.90;;;;;;5028442;28;20041;-54
2020/12/22 09:32:05;;;;;;;93.15;32.17;;;8.40;99.90;;;;;;5046579;28;20036;-55
2020/12/22 09:34:33;;;;;;;85.10;29.63;;;8.50;99.90;;;;;;5035932;28;20037;-49
2020/12/22 09:37:04;;;;;;;93.28;31.02;;;8.60;99.90;;;;;;5047378;28;20118;-55
2020/12/22 09:39:31;;;;;;;88.03;30.13;;;8.60;99.90;;;;;;5047733;28;20048;-56
2020/12/22 09:41:58;;;;;;;82.68;30.40;;;8.60;99.90;;;;;;5037370;28;20028;-55
2020/12/22 09:44:24;;;;;;;88.30;31.70;;;8.60;99.90;;;;;;5038865;28;20442;-51
2020/12/22 09:46:52;;;;;;;83.18;30.27;;;8.50;99.90;;;;;;5046658;28;20049;-54
2020/12/22 09:49:22;;;;;;;85.45;30.98;;;8.50;99.90;;;;;;5035995;28;20434;-56
2020/12/22 09:51:48;;;;;;;84.20;29.67;;;8.50;99.90;;;;;;5038757;28;20034;-56
2020/12/22 09:54:14;;;;;;;82.18;30.35;;;8.50;99.90;;;;;;5038160;28;20153;-53
2020/12/22 09:56:41;;;;;;;85.03;31.30;;;8.50;99.90;;;;;;5035957;28;20041;-53
2020/12/22 09:59:07;;;;;;;77.97;27.13;;;8.50;99.90;;;;;;5039064;28;20181;-56
2020/12/22 10:01:33;;;;;;;82.68;30.05;;;8.60;99.90;;;;;;5050524;28;20032;-54
2020/12/22 10:03:59;;;;;;;71.93;26.10;;;8.70;99.90;;;;;;5046058;28;20028;-54
2020/12/22 10:06:26;;;;;;;76.68;28.52;;;8.70;99.90;;;;;;5044063;28;20141;-54
2020/12/22 10:08:54;;;;;;;75.55;29.42;;;8.70;99.90;;;;;;5032034;28;20041;-56
2020/12/22 10:11:24;;;;;;;66.72;27.65;;;8.70;99.90;;;;;;5040348;28;20036;-51
2020/12/22 10:13:51;;;;;;;63.35;26.85;;;8.60;99.90;;;;;;5050234;28;20112;-54
2020/12/22 10:16:19;;;;;;;58.92;24.92;;;8.50;99.90;;;;;;5040674;28;20063;-55
2020/12/22 10:18:45;;;;;;;67.60;24.77;;;8.60;99.90;;;;;;5047220;28;20101;-57
2020/12/22 10:21:14;;;;;;;55.70;25.25;;;8.70;99.90;;;;;;5037840;28;20053;-55
2020/12/22 10:23:41;;;;;;;56.13;23.77;;;8.70;99.90;;;;;;5051265;28;20114;-52
2020/12/22 10:26:10;;;;;;;45.05;21.10;;;8.70;99.90;;;;;;5042002;28;20027;-55
2020/12/22 10:28:38;;;;;;;54.67;23.10;;;8.80;99.90;;;;;;5031303;28;20056;-53
2020/12/22 10:31:05;;;;;;;46.40;22.67;;;8.80;99.90;;;;;;5038607;28;20120;-51
2020/12/22 10:33:31;;;;;;;47.28;21.83;;;8.90;99.90;;;;;;5041247;28;20076;-51
2020/12/22 10:35:57;;;;;;;34.15;17.77;;;8.90;99.90;;;;;;5031224;28;20029;-52
2020/12/22 10:38:23;;;;;;;40.55;18.90;;;8.90;99.90;;;;;;5039889;28;20516;-51
2020/12/22 10:40:50;;;;;;;41.83;19.83;;;8.80;99.90;;;;;;5049327;28;20473;-49
2020/12/22 10:43:16;;;;;;;43.40;20.42;;;8.90;99.90;;;;;;5045642;28;20040;-56
2020/12/22 10:45:43;;;;;;;46.58;21.30;;;8.90;99.90;;;;;;5049092;28;20037;-54
2020/12/22 10:48:09;;;;;;;37.40;18.80;;;8.90;99.90;;;;;;5049720;28;20068;-53
2020/12/22 10:50:36;;;;;;;36.85;17.50;;;8.90;99.90;;;;;;5035986;28;20635;-54
2020/12/22 10:53:03;;;;;;;34.38;15.55;;;9.00;99.90;;;;;;5036254;28;20036;-54
2020/12/22 10:55:29;;;;;;;32.97;15.32;;;8.90;99.90;;;;;;5031034;28;20041;-55
2020/12/22 10:57:55;;;;;;;26.27;13.95;;;8.90;99.90;;;;;;5030707;28;20031;-57
2020/12/22 11:00:21;;;;;;;27.80;13.80;;;9.00;99.90;;;;;;5013224;28;20519;-53
2020/12/22 11:02:52;;;;;;;27.17;13.95;;;9.00;99.90;;;;;;5030864;28;20025;-51
2020/12/22 11:05:18;;;;;;;26.48;13.00;;;9.00;99.90;;;;;;5030844;28;20041;-55
2020/12/22 11:10:10;;;;;;;24.17;11.65;;;8.90;99.90;;;;;;5030679;28;20144;-52
2020/12/22 11:12:36;;;;;;;24.88;12.93;;;8.80;99.90;;;;;;5030385;28;20559;-54
2020/12/22 11:15:02;;;;;;;28.98;14.10;;;8.90;99.90;;;;;;5030570;28;20125;-53
2020/12/22 11:17:28;;;;;;;27.52;14.23;;;8.90;99.90;;;;;;5030391;28;20061;-56
2020/12/22 11:19:54;;;;;;;30.67;15.13;;;8.90;99.90;;;;;;5029989;28;20087;-51
2020/12/22 11:22:20;;;;;;;27.77;15.50;;;8.90;99.90;;;;;;5030402;28;20051;-51
2020/12/22 11:24:45;;;;;;;28.02;14.68;;;8.90;99.90;;;;;;5030619;28;20044;-56
2020/12/22 11:27:11;;;;;;;39.97;17.85;;;8.90;99.90;;;;;;5030097;28;20080;-50
2020/12/22 11:29:37;;;;;;;32.35;16.73;;;8.90;99.90;;;;;;5030353;28;20025;-54
2020/12/22 11:32:03;;;;;;;31.42;16.10;;;9.00;99.90;;;;;;5030275;28;20034;-53
2020/12/22 11:34:28;;;;;;;33.05;16.10;;;9.00;99.90;;;;;;5030543;28;20037;-53
2020/12/22 11:36:55;;;;;;;30.50;16.55;;;9.00;99.90;;;;;;5030161;28;20033;-55
2020/12/22 11:39:23;;;;;;;34.13;16.35;;;8.90;99.90;;;;;;5030138;28;20044;-55
2020/12/22 11:41:49;;;;;;;35.85;17.63;;;8.90;99.90;;;;;;5029966;28;20043;-54
2020/12/22 11:44:15;;;;;;;37.70;17.52;;;8.90;99.90;;;;;;5030271;28;20037;-55
2020/12/22 11:46:47;;;;;;;34.33;17.50;;;8.90;99.90;;;;;;5030010;28;20041;-54
2020/12/22 11:49:13;;;;;;;32.35;16.23;;;9.00;99.90;;;;;;5030145;28;20103;-51
2020/12/22 11:51:39;;;;;;;34.92;16.83;;;9.00;99.90;;;;;;5029883;28;20459;-52
2020/12/22 11:54:05;;;;;;;35.10;15.57;;;9.00;99.90;;;;;;5029814;28;20036;-58
2020/12/22 11:56:31;;;;;;;36.60;17.27;;;9.00;99.90;;;;;;5030089;28;20104;-56
2020/12/22 11:58:57;;;;;;;35.70;17.20;;;9.00;99.90;;;;;;5029897;28;20053;-55
2020/12/22 12:01:30;;;;;;;40.17;17.95;;;9.00;99.90;;;;;;5029727;28;20138;-53
2020/12/22 12:03:56;;;;;;;40.70;17.15;;;8.90;99.90;;;;;;5029671;28;20033;-53
2020/12/22 12:06:23;;;;;;;34.28;17.80;;;9.00;99.90;;;;;;5029668;28;20025;-56
2020/12/22 12:08:49;;;;;;;31.95;16.65;;;9.00;99.90;;;;;;5029004;28;20053;-55
2020/12/22 12:11:16;;;;;;;37.67;18.88;;;8.90;99.90;;;;;;5043365;28;20029;-50
2020/12/22 12:13:41;;;;;;;34.92;17.23;;;8.90;99.90;;;;;;5030621;28;20112;-54
2020/12/22 12:16:07;;;;;;;35.55;18.00;;;9.00;99.90;;;;;;5032869;28;20112;-56
2020/12/22 12:18:34;;;;;;;33.85;17.67;;;9.00;99.90;;;;;;5049593;28;20029;-57
2020/12/22 12:21:01;;;;;;;30.70;15.10;;;9.00;99.90;;;;;;5034460;28;20061;-54
2020/12/22 12:23:27;;;;;;;41.97;17.80;;;9.00;99.90;;;;;;5034423;28;20066;-54
2020/12/22 12:25:54;;;;;;;38.75;17.48;;;9.00;99.90;;;;;;5042602;28;20025;-55
2020/12/22 12:28:21;;;;;;;40.22;18.05;;;9.00;99.90;;;;;;5044093;28;20079;-57
2020/12/22 12:30:47;;;;;;;37.38;18.77;;;9.00;99.90;;;;;;5039379;28;20033;-55
2020/12/22 12:33:13;;;;;;;36.63;17.00;;;8.90;99.90;;;;;;5033555;28;20090;-55
2020/12/22 12:35:38;;;;;;;45.72;18.67;;;8.80;99.90;;;;;;5040208;28;20025;-55
2020/12/22 12:38:04;;;;;;;35.80;16.98;;;8.80;99.90;;;;;;5041595;28;20025;-54
2020/12/22 12:40:30;;;;;;;41.10;19.02;;;8.80;99.90;;;;;;5032122;28;20037;-55
2020/12/22 12:42:55;;;;;;;36.25;18.38;;;8.80;99.90;;;;;;5049001;28;20570;-54